.
WxDataArchive / Data Records for 2011-01-27
2011-01-26 January 2011 2011-01-28

Data Records for Thursday, 27 January 2011

Time	Temp	Chill	HIndex	Humid	Dewpt	 Wind 	HiWind	WindDir	Rain 	Barom 
-----	----	-----	------	-----	-----	------	------	-------	-----	----- 
00:00	26.0	26.0	26.0	80	20.7	2	6	248	0.00	30.032 
00:05	25.8	25.8	25.8	79	20.2	1	4	248	0.00	30.032 
00:10	25.8	25.8	25.8	79	20.2	2	4	248	0.00	30.032 
00:15	25.8	25.8	25.8	79	20.2	2	4	248	0.00	30.031 
00:20	25.7	25.7	25.7	79	20.1	2	5	248	0.00	30.031 
00:25	25.7	25.7	25.7	79	20.1	2	4	248	0.00	30.031 
00:30	25.7	25.7	25.7	79	20.1	1	3	248	0.00	30.028 
00:35	25.6	25.6	25.6	79	20.0	1	3	248	0.00	30.028 
00:40	25.6	25.6	25.6	79	20.0	1	3	225	0.00	30.028 
00:45	25.6	25.6	25.6	80	20.3	1	5	248	0.00	30.029 
00:50	25.6	25.6	25.6	80	20.3	1	4	248	0.00	30.029 
00:55	25.4	25.4	25.4	80	20.1	2	4	248	0.00	30.029 
01:00	25.4	25.4	25.4	81	20.4	1	3	248	0.00	30.024 
01:05	25.4	25.4	25.4	81	20.4	1	3	248	0.00	30.024 
01:10	25.4	25.4	25.4	81	20.4	1	3	248	0.00	30.024 
01:15	25.3	25.3	25.3	81	20.3	1	4	248	0.00	30.017 
01:20	25.3	25.3	25.3	81	20.3	1	4	248	0.00	30.017 
01:25	25.3	25.3	25.3	81	20.3	1	3	225	0.00	30.017 
01:30	25.3	25.3	25.3	81	20.3	1	3	248	0.00	30.020 
01:35	25.3	25.3	25.3	81	20.3	1	2	248	0.00	30.020 
01:40	25.3	25.3	25.3	82	20.6	1	4	248	0.00	30.020 
01:45	25.3	25.3	25.3	82	20.6	1	3	248	0.00	30.016 
01:50	25.3	25.3	25.3	82	20.6	1	3	248	0.00	30.016 
01:55	25.3	25.3	25.3	82	20.6	1	3	248	0.00	30.016 
02:00	25.3	25.3	25.3	82	20.6	0	2	248	0.00	30.014 
02:05	25.3	25.3	25.3	82	20.6	1	5	248	0.00	30.014 
02:10	25.3	25.3	25.3	82	20.6	1	2	248	0.00	30.014 
02:15	25.1	25.1	25.1	83	20.7	1	2	248	0.00	30.014 
02:20	25.1	25.1	25.1	83	20.7	1	3	248	0.00	30.014 
02:25	25.1	25.1	25.1	83	20.7	1	3	248	0.00	30.014 
02:30	25.1	25.1	25.1	83	20.7	1	3	248	0.00	30.016 
02:35	25.1	25.1	25.1	83	20.7	1	3	248	0.00	30.016 
02:40	25.1	25.1	25.1	83	20.7	0	2	248	0.00	30.016 
02:45	25.1	25.1	25.1	83	20.7	1	4	248	0.00	30.013 
02:50	25.0	25.0	25.0	83	20.6	2	4	248	0.00	30.013 
02:55	25.0	25.0	25.0	83	20.6	2	5	248	0.00	30.013 
03:00	24.8	24.8	24.8	82	20.1	1	4	248	0.00	30.014 
03:05	24.8	24.8	24.8	82	20.1	1	4	248	0.00	30.014 
03:10	24.7	24.7	24.7	82	20.0	2	5	248	0.00	30.014 
03:15	24.7	24.7	24.7	82	20.0	2	7	248	0.00	30.009 
03:20	24.5	24.5	24.5	82	19.8	1	4	248	0.00	30.009 
03:25	24.4	24.4	24.4	82	19.7	1	4	248	0.00	30.009 
03:30	24.2	24.2	24.2	83	19.8	1	2	248	0.00	30.009 
03:35	24.2	24.2	24.2	83	19.8	1	4	270	0.00	30.009 
03:40	24.1	24.1	24.1	84	20.0	1	3	248	0.00	30.009 
03:45	24.1	24.1	24.1	84	20.0	1	5	225	0.00	30.011 
03:50	23.9	23.9	23.9	84	19.8	2	5	248	0.00	30.011 
03:55	23.8	23.8	23.8	84	19.7	2	5	248	0.00	30.011 
04:00	23.8	23.8	23.8	84	19.7	1	4	225	0.00	30.008 
04:05	23.6	23.6	23.6	84	19.5	1	3	248	0.00	30.008 
04:10	23.6	23.6	23.6	84	19.5	1	4	248	0.00	30.008 
04:15	23.5	23.5	23.5	85	19.7	2	5	248	0.00	30.005 
04:20	23.5	23.5	23.5	85	19.7	1	4	248	0.00	30.005 
04:25	23.3	23.3	23.3	85	19.5	1	3	248	0.00	30.005 
04:30	23.3	23.3	23.3	85	19.5	2	4	270	0.00	30.002 
04:35	23.2	23.2	23.2	85	19.4	2	5	248	0.00	30.002 
04:40	23.0	23.0	23.0	85	19.2	2	5	248	0.00	30.002 
04:45	22.7	22.7	22.7	85	18.9	2	6	248	0.00	30.002 
04:50	22.5	22.5	22.5	85	18.7	3	6	248	0.00	30.002 
04:55	22.2	22.2	22.2	86	18.7	2	6	225	0.00	30.002 
05:00	21.9	21.9	21.9	86	18.4	2	5	248	0.00	30.005 
05:05	21.6	21.6	21.6	86	18.1	2	3	248	0.00	30.005 
05:10	21.4	21.4	21.4	86	17.9	1	7	248	0.00	30.005 
05:15	21.3	21.3	21.3	87	18.0	2	5	248	0.00	30.009 
05:20	21.1	21.1	21.1	87	17.8	1	5	248	0.00	30.009 
05:25	21.1	21.1	21.1	87	17.8	1	6	225	0.00	30.009 
05:30	21.0	21.0	21.0	88	18.0	2	4	248	0.00	30.008 
05:35	21.0	21.0	21.0	88	18.0	1	4	248	0.00	30.008 
05:40	21.0	21.0	21.0	88	18.0	1	5	270	0.00	30.008 
05:45	20.8	20.8	20.8	88	17.8	2	4	248	0.00	30.009 
05:50	20.8	20.8	20.8	88	17.8	2	5	248	0.00	30.009 
05:55	20.8	20.8	20.8	88	17.8	2	4	248	0.00	30.009 
06:00	20.8	20.8	20.8	88	17.8	1	3	248	0.00	30.008 
06:05	20.8	20.8	20.8	88	17.8	1	5	248	0.00	30.008 
06:10	20.6	20.6	20.6	88	17.6	1	4	248	0.00	30.008 
06:15	20.6	20.6	20.6	88	17.6	0	2	248	0.00	30.007 
06:20	20.5	20.5	20.5	88	17.5	1	4	225	0.00	30.007 
06:25	20.3	20.3	20.3	88	17.3	1	4	248	0.00	30.007 
06:30	20.0	20.0	20.0	88	17.0	1	3	248	0.00	30.007 
06:35	19.9	19.9	19.9	88	16.9	1	4	248	0.00	30.007 
06:40	19.9	19.9	19.9	88	16.9	1	3	248	0.00	30.007 
06:45	19.7	19.7	19.7	88	16.7	1	4	248	0.00	30.006 
06:50	19.5	19.5	19.5	88	16.5	2	5	248	0.00	30.006 
06:55	19.4	19.4	19.4	88	16.4	0	2	248	0.00	30.006 
07:00	19.4	19.4	19.4	88	16.4	1	4	248	0.00	30.004 
07:05	19.4	19.4	19.4	88	16.4	1	3	248	0.00	30.004 
07:10	19.4	19.4	19.4	88	16.4	1	3	248	0.00	30.004 
07:15	19.4	19.4	19.4	88	16.4	1	5	248	0.00	30.006 
07:20	19.4	19.4	19.4	88	16.4	1	3	248	0.00	30.006 
07:25	19.4	19.4	19.4	88	16.4	1	5	248	0.00	30.006 
07:30	19.4	19.4	19.4	88	16.4	1	4	248	0.00	30.006 
07:35	19.2	19.2	19.2	88	16.2	2	7	248	0.00	30.006 
07:40	19.2	19.2	19.2	88	16.2	1	3	248	0.00	30.006 
07:45	18.9	18.9	18.9	88	15.9	2	5	248	0.00	30.006 
07:50	18.8	18.8	18.8	89	16.1	1	4	248	0.00	30.006 
07:55	18.8	18.8	18.8	89	16.1	1	4	248	0.00	30.006 
08:00	18.8	18.8	18.8	89	16.1	2	6	248	0.00	30.006 
08:05	18.6	18.6	18.6	89	15.9	3	11	248	0.00	30.006 
08:10	18.6	18.6	18.6	89	15.9	2	7	248	0.00	30.006 
08:15	18.4	18.4	18.4	89	15.7	2	5	248	0.00	30.004 
08:20	18.3	18.3	18.3	89	15.6	1	4	248	0.00	30.004 
08:25	18.4	18.4	18.4	89	15.7	1	5	248	0.00	30.004 
08:30	18.4	18.4	18.4	89	15.7	1	3	248	0.00	30.003 
08:35	18.4	18.4	18.4	89	15.7	1	5	248	0.00	30.003 
08:40	18.6	18.6	18.6	88	15.6	1	4	270	0.00	30.003 
08:45	18.6	18.6	18.6	88	15.6	1	4	248	0.00	29.996 
08:50	18.8	18.8	18.8	88	15.8	2	8	248	0.00	29.996 
08:55	18.8	18.8	18.8	88	15.8	0	2	248	0.00	29.996 
09:00	18.9	18.9	18.9	88	15.9	1	5	248	0.00	29.993 
09:05	18.9	18.9	18.9	88	15.9	1	4	248	0.00	29.993 
09:10	19.1	19.1	19.1	88	16.1	2	5	248	0.00	29.993 
09:15	19.1	19.1	19.1	88	16.1	2	5	248	0.00	29.992 
09:20	19.2	19.2	19.2	88	16.2	1	4	248	0.00	29.992 
09:25	19.4	19.4	19.4	89	16.7	1	3	270	0.00	29.992 
09:30	19.5	19.5	19.5	89	16.8	1	4	270	0.00	29.990 
09:35	19.5	19.5	19.5	88	16.5	1	5	248	0.00	29.990 
09:40	19.7	19.7	19.7	89	17.0	1	3	248	0.00	29.990 
09:45	19.9	19.9	19.9	88	16.9	1	5	248	0.00	29.982 
09:50	20.0	20.0	20.0	88	17.0	1	4	248	0.00	29.982 
09:55	20.2	20.2	20.2	88	17.2	1	4	248	0.00	29.982 
10:00	20.3	20.3	20.3	88	17.3	1	5	248	0.00	29.979 
10:05	20.6	20.6	20.6	88	17.6	1	3	248	0.00	29.979 
10:10	20.8	20.8	20.8	88	17.8	1	2	248	0.00	29.979 
10:15	21.0	21.0	21.0	88	18.0	1	4	248	0.00	29.977 
10:20	21.1	21.1	21.1	87	17.8	1	3	248	0.00	29.977 
10:25	21.1	21.1	21.1	87	17.8	1	3	248	0.00	29.977 
10:30	21.3	21.3	21.3	86	17.8	1	3	248	0.00	29.978 
10:35	21.6	21.6	21.6	86	18.1	1	4	248	0.00	29.978 
10:40	21.6	21.6	21.6	86	18.1	1	4	248	0.00	29.978 
10:45	21.8	21.8	21.8	85	18.0	1	3	248	0.00	29.976 
10:50	21.8	21.8	21.8	85	18.0	1	4	225	0.00	29.976 
10:55	21.9	21.9	21.9	85	18.1	1	4	248	0.00	29.976 
11:00	22.2	22.2	22.2	84	18.1	0	2	292	0.00	29.976 
11:05	22.4	22.4	22.4	84	18.3	1	3	270	0.00	29.976 
11:10	22.7	22.7	22.7	84	18.6	0	3	270	0.00	29.976 
11:15	22.7	22.7	22.7	83	18.3	1	4	248	0.00	29.969 
11:20	22.9	22.9	22.9	82	18.2	1	3	248	0.00	29.969 
11:25	22.9	22.9	22.9	82	18.2	1	4	248	0.00	29.969 
11:30	22.9	22.9	22.9	81	18.0	2	5	248	0.00	29.963 
11:35	23.0	23.0	23.0	81	18.1	2	5	225	0.00	29.963 
11:40	23.2	23.2	23.2	81	18.3	1	3	248	0.00	29.963 
11:45	23.5	23.5	23.5	81	18.5	1	3	248	0.00	29.955 
11:50	23.6	23.6	23.6	81	18.6	1	2	248	0.00	29.955 
11:55	23.8	23.8	23.8	80	18.5	1	3	248	0.00	29.955 
12:00	23.9	23.9	23.9	80	18.6	2	5	248	0.00	29.942 
12:05	23.9	23.9	23.9	79	18.4	2	5	248	0.00	29.942 
12:10	24.1	24.1	24.1	79	18.5	2	5	248	0.00	29.942 
12:15	24.2	24.2	24.2	79	18.6	2	6	248	0.00	29.931 
12:20	24.2	24.2	24.2	78	18.3	3	6	248	0.00	29.931 
12:25	24.4	24.4	24.4	78	18.5	3	6	248	0.00	29.931 
12:30	24.7	24.7	24.7	78	18.8	1	5	248	0.00	29.914 
12:35	24.8	24.8	24.8	77	18.6	2	7	248	0.00	29.914 
12:40	24.8	24.8	24.8	77	18.6	2	6	248	0.00	29.914 
12:45	24.8	24.8	24.8	78	18.9	2	5	248	0.00	29.903 
12:50	24.8	24.8	24.8	78	18.9	3	8	248	0.00	29.903 
12:55	24.8	24.8	24.8	79	19.2	3	6	248	0.00	29.903 
13:00	25.3	25.3	25.3	79	19.7	1	5	248	0.00	29.895 
13:05	25.6	25.6	25.6	79	20.0	2	5	248	0.00	29.895 
13:10	25.6	25.6	25.6	78	19.7	3	7	248	0.00	29.895 
13:15	25.4	25.4	25.4	77	19.2	3	10	248	0.00	29.881 
13:20	25.4	25.4	25.4	77	19.2	2	5	248	0.00	29.881 
13:25	25.6	25.6	25.6	77	19.4	1	4	225	0.00	29.881 
13:30	25.6	25.6	25.6	77	19.4	2	5	248	0.00	29.876 
13:35	25.6	25.6	25.6	76	19.1	3	7	248	0.00	29.876 
13:40	25.4	25.4	25.4	76	18.9	3	12	248	0.00	29.876 
13:45	25.4	25.4	25.4	76	18.9	2	7	248	0.00	29.863 
13:50	25.4	25.4	25.4	76	18.9	3	10	248	0.00	29.863 
13:55	25.7	25.7	25.7	76	19.2	3	7	248	0.00	29.863 
14:00	25.8	25.8	25.8	76	19.3	2	6	248	0.00	29.860 
14:05	26.0	26.0	26.0	76	19.5	2	7	248	0.00	29.860 
14:10	26.0	26.0	26.0	75	19.2	3	12	248	0.00	29.860 
14:15	26.1	26.1	26.1	75	19.3	3	7	248	0.00	29.854 
14:20	26.1	26.1	26.1	75	19.3	3	9	248	0.00	29.854 
14:25	26.3	26.3	26.3	75	19.5	3	6	248	0.00	29.854 
14:30	26.1	26.1	26.1	75	19.3	3	9	248	0.00	29.847 
14:35	26.1	26.1	26.1	76	19.6	3	10	248	0.00	29.847 
14:40	26.3	26.3	26.3	76	19.8	2	5	225	0.00	29.847 
14:45	26.1	26.1	26.1	76	19.6	3	10	270	0.00	29.832 
14:50	26.1	26.1	26.1	77	19.9	2	10	248	0.00	29.832 
14:55	26.0	26.0	26.0	76	19.5	3	7	248	0.00	29.832 
15:00	26.0	26.0	26.0	76	19.5	3	7	248	0.00	29.828 
15:05	26.1	26.1	26.1	77	19.9	3	9	248	0.00	29.828 
15:10	26.3	26.3	26.3	78	20.4	2	6	248	0.00	29.828 
15:15	26.4	26.4	26.4	79	20.8	1	3	248	0.00	29.818 
15:20	26.3	26.3	26.3	80	21.0	2	6	248	0.00	29.818 
15:25	26.1	26.1	26.1	81	21.1	2	6	248	0.00	29.818 
15:30	26.1	26.1	26.1	82	21.4	1	4	248	0.00	29.816 
15:35	26.0	26.0	26.0	82	21.3	2	5	248	0.00	29.816 
15:40	26.0	26.0	26.0	82	21.3	1	4	248	0.00	29.816 
15:45	26.0	26.0	26.0	83	21.6	1	4	248	0.00	29.821 
15:50	26.1	26.1	26.1	83	21.7	1	2	248	0.00	29.821 
15:55	26.1	26.1	26.1	83	21.7	2	6	248	0.00	29.821 
16:00	26.1	26.1	26.1	84	21.9	2	5	225	0.00	29.828 
16:05	26.0	26.0	26.0	84	21.8	1	4	225	0.00	29.828 
16:10	26.0	26.0	26.0	84	21.8	1	4	248	0.00	29.828 
16:15	26.0	26.0	26.0	84	21.8	1	3	248	0.00	29.832 
16:20	26.0	26.0	26.0	85	22.1	1	3	248	0.00	29.832 
16:25	26.0	26.0	26.0	85	22.1	1	3	248	0.00	29.832 
16:30	26.1	26.1	26.1	86	22.5	1	3	248	0.00	29.832 
16:35	26.0	26.0	26.0	86	22.4	1	4	248	0.00	29.832 
16:40	26.0	26.0	26.0	86	22.4	1	3	248	0.00	29.832 
16:45	26.0	26.0	26.0	86	22.4	1	4	248	0.00	29.830 
16:50	26.0	26.0	26.0	87	22.7	0	2	248	0.00	29.830 
16:55	26.0	26.0	26.0	87	22.7	0	2	248	0.00	29.830 
17:00	26.0	26.0	26.0	87	22.7	0	2	248	0.00	29.818 
17:05	26.0	26.0	26.0	87	22.7	0	1	248	0.00	29.818 
17:10	26.0	26.0	26.0	87	22.7	0	3	248	0.00	29.818 
17:15	26.0	26.0	26.0	87	22.7	0	1	248	0.00	29.819 
17:20	25.8	25.8	25.8	87	22.5	0	2	248	0.00	29.819 
17:25	25.8	25.8	25.8	88	22.7	0	1	248	0.00	29.819 
17:30	25.8	25.8	25.8	88	22.7	0	1	248	0.00	29.815 
17:35	25.8	25.8	25.8	88	22.7	0	3	248	0.00	29.815 
17:40	25.8	25.8	25.8	88	22.7	0	1	248	0.00	29.815 
17:45	25.7	25.7	25.7	88	22.6	0	3	248	0.00	29.811 
17:50	25.7	25.7	25.7	88	22.6	0	3	248	0.00	29.811 
17:55	25.7	25.7	25.7	88	22.6	0	2	248	0.00	29.811 
18:00	25.7	25.7	25.7	88	22.6	0	1	248	0.00	29.812 
18:05	25.7	25.7	25.7	88	22.6	0	2	248	0.00	29.812 
18:10	25.7	25.7	25.7	88	22.6	0	1	248	0.00	29.812 
18:15	25.7	25.7	25.7	89	22.9	0	1	248	0.00	29.811 
18:20	25.7	25.7	25.7	89	22.9	0	1	248	0.00	29.811 
18:25	25.7	25.7	25.7	89	22.9	0	1	248	0.00	29.811 
18:30	25.7	25.7	25.7	89	22.9	0	0	---	0.00	29.812 
18:35	25.7	25.7	25.7	89	22.9	0	1	248	0.00	29.812 
18:40	25.7	25.7	25.7	89	22.9	0	0	---	0.00	29.812 
18:45	25.7	25.7	25.7	90	23.2	0	1	248	0.00	29.816 
18:50	25.8	25.8	25.8	90	23.3	0	1	248	0.00	29.816 
18:55	25.8	25.8	25.8	90	23.3	0	0	---	0.00	29.816 
19:00	25.8	25.8	25.8	90	23.3	0	1	248	0.00	29.818 
19:05	25.8	25.8	25.8	90	23.3	0	1	248	0.00	29.818 
19:10	25.8	25.8	25.8	90	23.3	0	2	248	0.00	29.818 
19:15	25.8	25.8	25.8	90	23.3	0	1	248	0.00	29.817 
19:20	25.8	25.8	25.8	90	23.3	0	1	248	0.00	29.817 
19:25	25.8	25.8	25.8	90	23.3	0	1	248	0.00	29.817 
19:30	25.8	25.8	25.8	90	23.3	0	2	248	0.00	29.820 
19:35	25.8	25.8	25.8	90	23.3	0	1	248	0.00	29.820 
19:40	25.8	25.8	25.8	90	23.3	0	1	248	0.00	29.820 
19:45	25.8	25.8	25.8	90	23.3	0	1	248	0.00	29.820 
19:50	26.0	26.0	26.0	91	23.7	0	1	248	0.00	29.820 
19:55	26.0	26.0	26.0	91	23.7	0	0	---	0.00	29.820 
20:00	26.0	26.0	26.0	91	23.7	0	1	248	0.00	29.818 
20:05	26.0	26.0	26.0	91	23.7	0	0	---	0.00	29.818 
20:10	26.0	26.0	26.0	91	23.7	0	1	248	0.00	29.818 
20:15	26.0	26.0	26.0	91	23.7	0	1	248	0.00	29.819 
20:20	26.0	26.0	26.0	91	23.7	0	1	248	0.00	29.819 
20:25	26.0	26.0	26.0	91	23.7	0	2	248	0.00	29.819 
20:30	26.0	26.0	26.0	91	23.7	0	2	248	0.00	29.816 
20:35	26.0	26.0	26.0	91	23.7	0	2	248	0.00	29.816 
20:40	26.0	26.0	26.0	91	23.7	0	1	248	0.00	29.816 
20:45	26.0	26.0	26.0	91	23.7	0	0	---	0.00	29.815 
20:50	26.0	26.0	26.0	91	23.7	0	1	248	0.00	29.815 
20:55	26.0	26.0	26.0	91	23.7	0	0	---	0.00	29.815 
21:00	26.0	26.0	26.0	91	23.7	0	0	---	0.00	29.816 
21:05	26.0	26.0	26.0	91	23.7	0	0	---	0.00	29.816 
21:10	26.0	26.0	26.0	91	23.7	0	0	---	0.00	29.816 
21:15	26.0	26.0	26.0	91	23.7	0	1	248	0.00	29.806 
21:20	26.0	26.0	26.0	91	23.7	0	0	---	0.00	29.806 
21:25	26.0	26.0	26.0	91	23.7	0	0	---	0.00	29.806 
21:30	26.0	26.0	26.0	91	23.7	0	0	---	0.00	29.805 
21:35	26.0	26.0	26.0	91	23.7	0	0	---	0.00	29.805 
21:40	26.0	26.0	26.0	91	23.7	0	0	---	0.00	29.805 
21:45	26.0	26.0	26.0	91	23.7	0	0	---	0.00	29.804 
21:50	26.0	26.0	26.0	91	23.7	0	0	---	0.00	29.804 
21:55	26.0	26.0	26.0	91	23.7	0	0	---	0.00	29.804 
22:00	26.0	26.0	26.0	91	23.7	0	0	---	0.00	29.804 
22:05	26.0	26.0	26.0	91	23.7	0	0	---	0.00	29.804 
22:10	26.0	26.0	26.0	92	24.0	0	0	---	0.00	29.804 
22:15	26.0	26.0	26.0	92	24.0	0	0	---	0.00	29.801 
22:20	26.0	26.0	26.0	92	24.0	0	0	---	0.00	29.801 
22:25	26.0	26.0	26.0	92	24.0	0	0	---	0.00	29.801 
22:30	26.0	26.0	26.0	92	24.0	0	0	---	0.00	29.799 
22:35	26.1	26.1	26.1	92	24.1	0	0	---	0.00	29.799 
22:40	26.1	26.1	26.1	92	24.1	0	1	248	0.00	29.799 
22:45	26.1	26.1	26.1	92	24.1	0	0	---	0.00	29.799 
22:50	26.1	26.1	26.1	92	24.1	0	0	---	0.00	29.799 
22:55	26.1	26.1	26.1	92	24.1	0	0	---	0.00	29.799 
23:00	26.1	26.1	26.1	92	24.1	0	1	248	0.00	29.801 
23:05	26.1	26.1	26.1	92	24.1	0	1	248	0.00	29.801 
23:10	26.1	26.1	26.1	92	24.1	0	0	---	0.00	29.801 
23:15	26.1	26.1	26.1	92	24.1	0	0	---	0.00	29.800 
23:20	26.1	26.1	26.1	92	24.1	0	0	---	0.00	29.800 
23:25	26.3	26.3	26.3	92	24.3	0	0	---	0.00	29.800 
23:30	26.3	26.3	26.3	92	24.3	0	0	---	0.00	29.800 
23:35	26.3	26.3	26.3	92	24.3	0	0	---	0.00	29.800 
23:40	26.3	26.3	26.3	92	24.3	0	1	248	0.00	29.800 
23:45	26.3	26.3	26.3	92	24.3	0	1	248	0.00	29.800 
23:50	26.3	26.3	26.3	92	24.3	0	1	248	0.00	29.800 
23:55	26.3	26.3	26.3	92	24.3	0	1	248	0.00	29.800 

CoCoRaHS
IN-AL-39
A2 Web Hosting
Creative Commons License
GoDaddy
search engine by freefind advanced

loaded 2018-11-16 11:28:52 • last modified 2010-11-18 10:43:29
Privacy PolicyDisclaimer
• wx.awcolley.com is powered by PmWiki v.2002016 •
• all content (unless otherwise noted) © 2018 A W Colley